Time;durP1;ratioP1;P1;durP2;ratioP2;P2;SDS_P1;SDS_P2;PMS_P1;PMS_P2;Temp;Humidity;BMP_temperature;BMP_pressure;BME280_temperature;BME280_humidity;BME280_pressure;Samples;Min_cycle;Max_cycle;Signal;HPM_P1;HPM_P2
2022/10/27 00:00:08;;;;;;;15.80;8.48;;;;;;;13.39;89.85;101803.28;5122805;27;20050;-66
2022/10/27 00:02:36;;;;;;;16.05;8.38;;;;;;;13.67;88.33;101797.59;5128215;27;20043;-67
2022/10/27 00:05:02;;;;;;;15.38;8.88;;;;;;;13.98;86.64;101806.56;5128797;27;20057;-67
2022/10/27 00:07:29;;;;;;;17.92;8.75;;;;;;;14.01;86.08;101805.56;5128116;27;20503;-67
2022/10/27 00:09:55;;;;;;;12.05;7.05;;;;;;;13.78;84.38;101805.84;5127661;27;20039;-67
2022/10/27 00:12:22;;;;;;;9.02;6.65;;;;;;;13.01;86.24;101805.84;5116517;27;20048;-67
2022/10/27 00:14:48;;;;;;;14.73;8.10;;;;;;;12.50;91.41;101809.00;5104901;27;20047;-67
2022/10/27 00:17:14;;;;;;;12.27;8.05;;;;;;;12.99;89.59;101809.50;5127788;27;20559;-67
2022/10/27 00:19:42;;;;;;;14.45;7.88;;;;;;;13.36;87.93;101806.06;5128573;27;20057;-67
2022/10/27 00:22:09;;;;;;;11.45;7.40;;;;;;;13.34;86.67;101815.84;5127615;27;20491;-67
2022/10/27 00:24:35;;;;;;;10.20;7.53;;;;;;;13.41;85.16;101812.84;5106752;27;20051;-67
2022/10/27 00:27:02;;;;;;;13.98;6.85;;;;;;;13.13;85.76;101807.97;5117462;27;20096;-67
2022/10/27 00:29:28;;;;;;;13.18;7.88;;;;;;;12.85;88.51;101814.53;5127260;27;20616;-67
2022/10/27 00:31:54;;;;;;;15.70;8.82;;;;;;;13.18;87.66;101817.44;5112402;27;20047;-67
2022/10/27 00:34:21;;;;;;;14.00;8.75;;;;;;;13.50;86.02;101812.41;5108993;28;20043;-67
2022/10/27 00:36:48;;;;;;;11.95;8.40;;;;;;;13.53;86.52;101821.94;5105012;27;20051;-67
2022/10/27 00:39:15;;;;;;;12.25;8.45;;;;;;;13.63;86.14;101820.59;5106688;27;20055;-67
2022/10/27 00:41:43;;;;;;;21.17;8.80;;;;;;;13.71;85.92;101828.16;5106945;27;20055;-67
2022/10/27 00:44:29;;;;;;;14.77;9.07;;;;;;;13.41;87.67;101827.81;5107948;27;20039;-67
2022/10/27 00:46:57;;;;;;;15.70;8.65;;;;;;;13.29;89.30;101836.25;5087017;28;20543;-67
2022/10/27 00:49:27;;;;;;;12.88;9.20;;;;;;;13.10;90.46;101841.50;5089266;28;20044;-67
2022/10/27 00:51:59;;;;;;;12.38;8.77;;;;;;;13.36;89.17;101846.44;5106265;27;20047;-67
2022/10/27 00:54:29;;;;;;;14.40;9.48;;;;;;;13.25;89.09;101847.84;5107914;28;20039;-67
2022/10/27 00:56:57;;;;;;;11.73;9.05;;;;;;;13.21;90.18;101847.13;5107666;27;20455;-67
2022/10/27 00:59:24;;;;;;;15.75;8.80;;;;;;;13.40;88.93;101848.03;5106406;28;20491;-67
2022/10/27 01:01:52;;;;;;;13.88;8.80;;;;;;;13.34;88.51;101845.66;5106321;27;20054;-67
2022/10/27 01:04:27;;;;;;;15.15;8.70;;;;;;;13.49;87.37;101846.72;5107045;27;20059;-67
2022/10/27 01:06:55;;;;;;;16.80;9.80;;;;;;;13.51;87.71;101844.88;5106698;28;20490;-67
2022/10/27 01:09:22;;;;;;;15.40;8.88;;;;;;;13.73;86.17;101845.59;5106747;28;20510;-67
2022/10/27 01:11:48;;;;;;;18.77;8.80;;;;;;;13.64;86.67;101848.66;5107296;27;20051;-67
2022/10/27 01:14:15;;;;;;;14.73;8.32;;;;;;;13.65;86.37;101848.59;5107614;27;20047;-67
2022/10/27 01:16:48;;;;;;;11.60;8.63;;;;;;;13.83;85.30;101859.19;5106547;27;20100;-67
2022/10/27 01:19:41;;;;;;;22.25;8.77;;;;;;;13.61;84.85;101857.56;5107686;27;20035;-67
2022/10/27 01:22:15;;;;;;;13.40;8.07;;;;;;;13.80;83.28;101862.81;5107101;28;20051;-67
2022/10/27 01:25:03;;;;;;;14.57;8.85;;;;;;;12.99;86.54;101856.88;5106991;28;20052;-67
2022/10/27 01:27:55;;;;;;;18.90;8.68;;;;;;;12.56;90.48;101866.59;5107830;28;20156;-66
2022/10/27 01:30:22;;;;;;;12.95;7.65;;;;;;;12.53;89.74;101868.50;5106444;27;20056;-66
2022/10/27 01:33:02;;;;;;;8.85;7.25;;;;;;;12.74;87.88;101872.03;5125240;27;20051;-67
2022/10/27 01:35:35;;;;;;;11.52;7.93;;;;;;;12.89;86.49;101866.97;5119156;27;20044;-67
2022/10/27 01:38:10;;;;;;;11.98;6.70;;;;;;;12.88;85.36;101873.16;5106944;28;20124;-67
2022/10/27 01:40:44;;;;;;;12.20;6.63;;;;;;;12.95;83.87;101869.31;5107215;28;20044;-67
2022/10/27 01:43:14;;;;;;;11.65;5.53;;;;;;;12.78;81.81;101874.47;5107227;28;20042;-67
2022/10/27 01:45:42;;;;;;;7.57;5.57;;;;;;;13.00;81.56;101863.88;5104944;27;20097;-67
2022/10/27 01:48:11;;;;;;;10.82;5.13;;;;;;;12.76;81.20;101870.19;5106617;27;20352;-67
2022/10/27 01:50:40;;;;;;;8.80;5.75;;;;;;;12.87;80.76;101867.94;5105341;28;20036;-67
2022/10/27 01:53:07;;;;;;;8.50;6.57;;;;;;;13.00;80.46;101869.13;5107465;28;20040;-67
2022/10/27 01:55:42;;;;;;;11.45;6.55;;;;;;;12.86;80.45;101874.16;5105333;28;20046;-67
2022/10/27 01:58:24;;;;;;;7.70;6.05;;;;;;;12.97;79.22;101874.53;5106320;28;20266;-67
2022/10/27 02:01:04;;;;;;;10.07;6.32;;;;;;;12.89;79.79;101871.38;5106386;27;20100;-67
2022/10/27 02:03:37;;;;;;;9.43;7.05;;;;;;;12.92;80.25;101869.47;5104903;28;20047;-67
2022/10/27 02:06:10;;;;;;;10.85;7.18;;;;;;;12.65;80.96;101863.59;5106809;28;20089;-67
2022/10/27 02:08:40;;;;;;;;;;;;;;;12.58;81.12;101863.94;5106486;28;20073;-67
2022/10/27 02:11:09;;;;;;;9.60;5.63;;;;;;;12.45;80.42;101866.19;5106267;28;19927;-67
2022/10/27 02:13:40;;;;;;;10.55;5.97;;;;;;;12.55;80.56;101867.56;5103933;27;20113;-67
2022/10/27 02:16:09;;;;;;;6.95;5.20;;;;;;;12.08;82.23;101860.75;5100021;28;20058;-67
2022/10/27 02:18:41;;;;;;;14.90;7.03;;;;;;;11.71;86.59;101866.59;5105354;28;20518;-67
2022/10/27 02:21:10;;;;;;;;;;;;;;;11.80;86.19;101866.22;5106122;28;20047;-67
2022/10/27 02:23:37;;;;;;;11.55;5.82;;;;;;;11.89;85.07;101870.28;5106786;28;19920;-67
2022/10/27 02:26:09;;;;;;;6.72;5.18;;;;;;;11.66;84.45;101865.88;5104767;28;20051;-67
2022/10/27 02:28:40;;;;;;;10.60;5.85;;;;;;;11.73;84.84;101877.03;5092068;28;20051;-67
2022/10/27 02:31:08;;;;;;;9.32;5.75;;;;;;;11.81;83.08;101878.47;5084662;28;20044;-67
2022/10/27 02:33:35;;;;;;;8.52;5.70;;;;;;;11.47;82.62;101870.97;5086889;28;20062;-67
2022/10/27 02:36:03;;;;;;;18.65;9.10;;;;;;;10.86;92.03;101874.09;5096800;28;20048;-67
2022/10/27 02:38:29;;;;;;;20.70;9.15;;;;;;;11.11;92.18;101885.44;5105435;28;20093;-67
2022/10/27 02:40:56;;;;;;;15.60;8.60;;;;;;;11.75;89.14;101872.59;5106442;28;20040;-67
2022/10/27 02:43:22;;;;;;;17.48;10.02;;;;;;;11.35;91.16;101879.28;5104538;27;20407;-67
2022/10/27 02:45:49;;;;;;;17.40;10.93;;;;;;;10.90;96.16;101880.97;5095979;28;20048;-67
2022/10/27 02:48:15;;;;;;;19.33;10.48;;;;;;;11.31;96.55;101876.88;5105913;28;20388;-67
2022/10/27 02:50:41;;;;;;;14.60;9.75;;;;;;;11.81;92.62;101874.97;5103527;28;20112;-67
2022/10/27 02:53:09;;;;;;;19.77;9.70;;;;;;;11.95;90.57;101872.66;5104531;28;20043;-67
2022/10/27 02:55:36;;;;;;;14.57;8.55;;;;;;;12.23;88.86;101881.19;5106429;28;20043;-67
2022/10/27 02:58:02;;;;;;;13.68;8.90;;;;;;;12.20;87.84;101881.28;5106477;28;20080;-67
2022/10/27 03:00:28;;;;;;;17.50;7.95;;;;;;;12.06;88.79;101894.13;5104613;28;20039;-67
2022/10/27 03:02:55;;;;;;;30.67;8.65;;;;;;;11.88;88.91;101886.97;5105902;28;20055;-67
2022/10/27 03:05:21;;;;;;;14.07;8.18;;;;;;;12.01;87.76;101893.47;5105570;28;20418;-67
2022/10/27 03:07:48;;;;;;;10.43;7.95;;;;;;;12.19;87.04;101898.00;5105924;28;20444;-67
2022/10/27 03:10:16;;;;;;;12.93;7.32;;;;;;;12.21;85.98;101901.41;5105981;28;20052;-67
2022/10/27 03:12:42;;;;;;;17.10;6.55;;;;;;;12.12;85.66;101907.03;5104858;28;20051;-67
2022/10/27 03:15:09;;;;;;;14.02;6.75;;;;;;;11.79;86.92;101905.72;5109843;27;20043;-67
2022/10/27 03:17:36;;;;;;;11.50;6.88;;;;;;;11.88;86.81;101921.13;5108979;28;20260;-67
2022/10/27 03:20:02;;;;;;;107.53;10.80;;;;;;;11.90;86.38;101924.56;5109329;28;20039;-67
2022/10/27 03:22:29;;;;;;;12.15;7.45;;;;;;;12.09;85.66;101926.41;5109645;27;20048;-67
2022/10/27 03:24:56;;;;;;;13.40;6.95;;;;;;;12.11;84.81;101918.47;5108184;27;20429;-67
2022/10/27 03:27:23;;;;;;;15.35;6.88;;;;;;;11.93;84.86;101932.31;5108915;28;20054;-67
2022/10/27 03:29:50;;;;;;;11.70;6.65;;;;;;;11.93;83.99;101929.69;5109896;28;20055;-67
2022/10/27 03:32:16;;;;;;;10.80;6.15;;;;;;;12.16;83.17;101932.28;5108192;28;20056;-67
2022/10/27 03:34:43;;;;;;;8.55;6.25;;;;;;;12.17;82.34;101939.25;5108793;28;20058;-67
2022/10/27 03:37:09;;;;;;;8.38;5.80;;;;;;;12.18;81.34;101939.22;5109439;28;20047;-67
2022/10/27 03:39:35;;;;;;;12.90;6.90;;;;;;;12.20;80.90;101939.13;5107782;28;20491;-67
2022/10/27 03:42:02;;;;;;;8.77;6.00;;;;;;;12.12;80.40;101941.22;5106727;28;20050;-67
2022/10/27 03:44:29;;;;;;;19.42;6.45;;;;;;;11.70;81.95;101939.28;5108758;28;20047;-67
2022/10/27 03:46:56;;;;;;;10.07;6.18;;;;;;;11.93;82.15;101950.72;5107395;28;20047;-67
2022/10/27 03:49:22;;;;;;;40.25;6.85;;;;;;;11.88;82.25;101939.53;5107802;28;20096;-67
2022/10/27 03:51:49;;;;;;;13.57;5.70;;;;;;;11.65;82.72;101946.47;5109118;27;20040;-67
2022/10/27 03:54:15;;;;;;;8.80;5.72;;;;;;;11.34;83.79;101940.63;5107947;27;20044;-67
2022/10/27 03:56:42;;;;;;;11.98;6.90;;;;;;;11.31;84.21;101945.97;5107553;28;20495;-67
2022/10/27 03:59:08;;;;;;;8.68;5.88;;;;;;;11.57;83.22;101939.75;5107858;28;20085;-67
2022/10/27 04:01:36;;;;;;;10.52;5.40;;;;;;;11.32;83.45;101952.94;5108755;27;20047;-67
2022/10/27 04:04:03;;;;;;;9.55;5.53;;;;;;;11.28;83.23;101953.94;5108765;28;20047;-67
2022/10/27 04:06:29;;;;;;;15.98;5.65;;;;;;;11.32;82.71;101952.94;5109517;27;20514;-67
2022/10/27 04:08:56;;;;;;;11.60;5.68;;;;;;;11.39;82.43;101958.81;5106745;27;20047;-67
2022/10/27 04:11:23;;;;;;;8.68;5.15;;;;;;;11.47;81.61;101962.03;5107302;27;20040;-67
2022/10/27 04:13:49;;;;;;;9.77;5.82;;;;;;;11.39;81.43;101958.81;5107934;28;20047;-67
2022/10/27 04:16:15;;;;;;;13.32;6.68;;;;;;;11.53;80.83;101967.91;5103168;27;20058;-67
2022/10/27 04:18:43;;;;;;;10.77;6.22;;;;;;;11.62;80.28;101967.59;5107305;28;20075;-67
2022/10/27 04:21:10;;;;;;;25.92;9.50;;;;;;;11.66;80.90;101973.59;5109024;28;20568;-67
2022/10/27 04:23:36;;;;;;;15.48;7.95;;;;;;;11.31;83.28;101972.22;5107519;27;20043;-67
2022/10/27 04:26:02;;;;;;;18.35;7.63;;;;;;;10.97;83.85;101982.19;5106468;28;20047;-67
2022/10/27 04:28:29;;;;;;;23.60;7.93;;;;;;;11.09;83.40;101981.75;5106242;28;20097;-67
2022/10/27 04:30:55;;;;;;;19.55;8.02;;;;;;;11.29;82.73;101978.44;5105800;28;20051;-67
2022/10/27 04:33:22;;;;;;;21.30;8.80;;;;;;;11.31;82.24;101982.72;5107902;28;20039;-67
2022/10/27 04:35:50;;;;;;;23.48;9.63;;;;;;;11.24;81.62;101986.47;5088955;27;20056;-67
2022/10/27 04:38:16;;;;;;;20.00;9.60;;;;;;;11.25;81.55;101993.44;5101982;27;20039;-67
2022/10/27 04:40:42;;;;;;;50.97;10.55;;;;;;;11.09;81.90;101987.84;5127933;27;20551;-67
2022/10/27 04:43:09;;;;;;;23.02;9.20;;;;;;;10.71;84.42;101986.53;5115720;27;20051;-66
2022/10/27 04:45:35;;;;;;;17.75;7.82;;;;;;;11.01;83.99;101981.16;5107028;28;20040;-66
2022/10/27 04:48:03;;;;;;;17.08;7.57;;;;;;;11.08;83.86;101982.69;5107481;28;20043;-66
2022/10/27 04:50:29;;;;;;;18.17;7.65;;;;;;;11.19;82.80;101991.03;5113936;27;20508;-67
2022/10/27 04:52:59;;;;;;;17.17;6.63;;;;;;;11.05;82.32;101993.25;5097991;27;20498;-67
2022/10/27 04:55:26;;;;;;;11.27;6.60;;;;;;;10.63;84.88;101992.91;5108451;27;20050;-67
2022/10/27 04:57:53;;;;;;;11.82;6.13;;;;;;;10.70;84.75;101984.81;5108020;27;20418;-67
2022/10/27 05:00:20;;;;;;;15.13;7.85;;;;;;;10.78;85.03;101991.56;5098088;27;20547;-67
2022/10/27 05:02:52;;;;;;;15.45;6.95;;;;;;;10.93;84.54;101991.06;5118879;27;20083;-67
2022/10/27 05:05:18;;;;;;;9.77;5.70;;;;;;;11.09;83.48;102000.97;5112335;27;20043;-67
2022/10/27 05:07:51;;;;;;;12.40;6.97;;;;;;;11.31;82.10;102001.09;5077451;28;20055;-67
2022/10/27 05:10:18;;;;;;;14.32;6.45;;;;;;;11.22;82.20;101999.69;5087704;28;20044;-67
2022/10/27 05:12:45;;;;;;;9.93;6.35;;;;;;;11.36;81.39;101999.19;5088411;28;20055;-67
2022/10/27 05:15:11;;;;;;;9.13;5.82;;;;;;;11.24;81.37;102002.22;5071882;27;20044;-67
2022/10/27 05:17:38;;;;;;;13.60;6.40;;;;;;;11.40;81.17;101992.91;5088285;28;20043;-67
2022/10/27 05:20:06;;;;;;;13.02;6.45;;;;;;;11.50;80.54;101993.44;5088600;28;20076;-67
2022/10/27 05:22:33;;;;;;;10.60;5.68;;;;;;;11.21;81.50;101990.06;5078806;28;20050;-67
2022/10/27 05:24:59;;;;;;;9.93;5.97;;;;;;;11.03;81.98;101988.06;5096857;28;20564;-67
2022/10/27 05:27:27;;;;;;;8.68;6.13;;;;;;;10.87;82.95;101981.63;5097490;27;20051;-67
2022/10/27 05:29:54;;;;;;;13.60;6.03;;;;;;;10.84;83.37;101986.09;5078370;27;20047;-67
2022/10/27 05:32:21;;;;;;;9.93;5.78;;;;;;;10.71;84.20;101985.66;5104203;28;20043;-67
2022/10/27 05:34:47;;;;;;;10.90;6.22;;;;;;;10.75;83.69;101992.53;5099598;27;20048;-67
2022/10/27 05:37:14;;;;;;;13.95;6.10;;;;;;;10.89;82.95;101994.69;5089856;28;20546;-67
2022/10/27 05:39:40;;;;;;;10.82;6.55;;;;;;;10.79;83.24;101990.66;5083703;28;20063;-66
2022/10/27 05:42:07;;;;;;;9.57;6.00;;;;;;;10.72;83.45;101998.72;5088670;27;20546;-67
2022/10/27 05:44:34;;;;;;;11.60;7.18;;;;;;;10.64;84.66;101994.66;5102722;27;20043;-67
2022/10/27 05:47:01;;;;;;;9.43;6.63;;;;;;;10.42;86.36;101991.81;5104170;27;20048;-66
2022/10/27 05:49:27;;;;;;;12.15;6.30;;;;;;;10.40;86.23;101993.63;5096030;28;20043;-66
2022/10/27 05:51:54;;;;;;;16.45;7.72;;;;;;;10.50;85.98;101986.31;5095733;27;20434;-66
2022/10/27 05:54:20;;;;;;;29.20;7.38;;;;;;;10.70;84.99;101989.19;5110630;27;20491;-66
2022/10/27 05:56:49;;;;;;;10.65;7.00;;;;;;;10.46;85.13;101992.56;5106770;28;20040;-66
2022/10/27 05:59:15;;;;;;;15.88;7.70;;;;;;;10.32;87.02;101998.25;5104646;28;20051;-66
2022/10/27 06:01:44;;;;;;;19.23;8.30;;;;;;;10.66;86.38;101988.44;5094375;28;20048;-66
2022/10/27 06:04:10;;;;;;;14.10;7.72;;;;;;;10.93;85.04;101993.69;5106757;28;20047;-67
2022/10/27 06:06:36;;;;;;;10.80;7.88;;;;;;;11.09;83.99;101992.25;5076959;28;20044;-67
2022/10/27 06:09:03;;;;;;;16.73;7.63;;;;;;;11.08;83.06;101995.81;5085733;28;20048;-66
2022/10/27 06:11:30;;;;;;;9.30;6.20;;;;;;;11.10;82.33;101997.47;5102236;28;20051;-67
2022/10/27 06:13:56;;;;;;;14.75;7.82;;;;;;;10.48;85.74;102010.00;5104997;28;20108;-67
2022/10/27 06:16:24;;;;;;;10.23;7.32;;;;;;;10.31;89.61;101996.53;5106025;28;20043;-66
2022/10/27 06:18:52;;;;;;;13.23;8.20;;;;;;;10.24;91.78;102006.34;5104136;28;20075;-66
2022/10/27 06:21:18;;;;;;;16.95;8.52;;;;;;;10.54;90.83;102014.19;5105284;28;20048;-66
2022/10/27 06:23:47;;;;;;;11.18;7.88;;;;;;;10.74;89.68;102017.03;5100603;28;20063;-66
2022/10/27 06:26:13;;;;;;;10.43;8.05;;;;;;;10.99;87.95;102014.47;5116154;28;20043;-66
2022/10/27 06:28:40;;;;;;;14.10;7.80;;;;;;;10.86;89.06;102015.78;5108942;28;20048;-66
2022/10/27 06:31:06;;;;;;;19.63;8.07;;;;;;;10.87;90.31;102020.97;5104915;27;20051;-70
2022/10/27 06:33:33;;;;;;;14.43;9.23;;;;;;;10.92;90.88;102016.44;5104471;28;20052;-66
2022/10/27 06:36:01;;;;;;;16.38;7.85;;;;;;;11.06;89.30;102021.22;5102027;28;20105;-67
2022/10/27 06:38:27;;;;;;;13.23;7.82;;;;;;;11.19;88.56;102019.94;5104624;28;20048;-67
2022/10/27 06:40:54;;;;;;;12.70;9.07;;;;;;;11.76;87.21;102034.56;5104956;28;20543;-67
2022/10/27 06:43:21;;;;;;;13.65;8.32;;;;;;;12.11;85.54;102028.91;5102596;28;20534;-67
2022/10/27 06:45:48;;;;;;;12.68;9.00;;;;;;;12.33;85.14;102036.81;5110854;28;20047;-67
2022/10/27 06:48:15;;;;;;;14.07;8.82;;;;;;;12.55;84.33;102035.06;5105978;27;20051;-67
2022/10/27 06:50:41;;;;;;;9.52;7.43;;;;;;;12.75;83.65;102039.56;5107494;27;20487;-66
2022/10/27 06:53:09;;;;;;;15.80;7.45;;;;;;;13.01;81.81;102041.97;5113304;27;20046;-66
2022/10/27 06:55:36;;;;;;;11.57;7.25;;;;;;;13.01;82.17;102049.84;5118627;27;20510;-67
2022/10/27 06:58:02;;;;;;;16.77;7.40;;;;;;;12.57;83.31;102047.25;5104682;27;20656;-67
2022/10/27 07:00:29;;;;;;;10.13;7.75;;;;;;;12.80;83.23;102045.47;5107791;28;20511;-67
2022/10/27 07:02:55;;;;;;;16.83;8.45;;;;;;;12.56;84.72;102050.78;5109688;28;20043;-67
2022/10/27 07:05:22;;;;;;;13.70;8.48;;;;;;;12.80;85.38;102050.75;5099765;27;20039;-67
2022/10/27 07:07:49;;;;;;;14.05;8.85;;;;;;;13.36;83.29;102045.81;5123037;27;20043;-66
2022/10/27 07:10:18;;;;;;;13.85;7.95;;;;;;;13.55;83.27;102046.72;5122044;27;20049;-66
2022/10/27 07:12:52;;;;;;;13.20;8.48;;;;;;;13.19;85.75;102053.56;5109803;27;20051;-66
2022/10/27 07:15:19;;;;;;;13.05;8.10;;;;;;;13.09;88.47;102047.78;5112817;27;20075;-66
2022/10/27 07:17:45;;;;;;;14.43;7.45;;;;;;;13.49;86.60;102045.19;5124454;27;20078;-66
2022/10/27 07:20:12;;;;;;;9.95;6.95;;;;;;;14.31;84.89;102038.84;5107588;27;20716;-66
2022/10/27 07:22:39;;;;;;;8.95;6.68;;;;;;;14.92;81.64;102041.25;5100954;27;20093;-66
2022/10/27 07:25:07;;;;;;;9.13;6.63;;;;;;;15.15;80.28;102040.94;5094009;28;20047;-67
2022/10/27 07:27:34;;;;;;;9.65;6.25;;;;;;;15.61;78.70;102043.94;5107653;28;20043;-67
2022/10/27 07:30:01;;;;;;;8.65;5.70;;;;;;;16.30;77.21;102045.44;5107641;27;20048;-67
2022/10/27 07:32:27;;;;;;;10.15;6.28;;;;;;;16.84;74.42;102049.50;5100478;27;20050;-67
2022/10/27 07:34:54;;;;;;;8.95;5.53;;;;;;;17.63;72.67;102059.91;5113999;27;20412;-67
2022/10/27 07:37:20;;;;;;;13.55;5.45;;;;;;;18.29;70.34;102058.38;5106350;27;20039;-67
2022/10/27 07:39:46;;;;;;;8.82;5.15;;;;;;;18.51;67.44;102054.41;5107449;27;20100;-67
2022/10/27 07:42:13;;;;;;;11.38;5.95;;;;;;;18.20;70.23;102058.97;5112407;27;20693;-67
2022/10/27 07:44:41;;;;;;;5.78;4.88;;;;;;;18.44;69.19;102060.06;5107041;28;20043;-67
2022/10/27 07:47:07;;;;;;;8.05;5.28;;;;;;;17.91;69.66;102063.44;5106900;27;20043;-67
2022/10/27 07:49:34;;;;;;;9.35;5.63;;;;;;;17.75;70.68;102073.28;5115416;27;20527;-67
2022/10/27 07:52:00;;;;;;;9.00;5.55;;;;;;;17.68;70.43;102069.28;5106190;28;20048;-67
2022/10/27 07:54:28;;;;;;;11.45;5.50;;;;;;;18.05;69.22;102070.56;5113894;27;20047;-67
2022/10/27 07:56:54;;;;;;;9.65;5.60;;;;;;;18.29;68.64;102066.34;5108358;27;20051;-67
2022/10/27 07:59:21;;;;;;;10.63;5.82;;;;;;;18.58;68.69;102064.56;5111051;27;20396;-67
2022/10/27 08:01:48;;;;;;;7.57;5.72;;;;;;;19.46;66.91;102071.16;5109881;27;20483;-67
2022/10/27 08:04:15;;;;;;;10.38;5.10;;;;;;;19.63;66.37;102057.53;5087498;28;20048;-67
2022/10/27 08:06:41;;;;;;;7.80;5.28;;;;;;;20.14;62.23;102063.72;5105642;27;20050;-67
2022/10/27 08:09:08;;;;;;;10.85;5.63;;;;;;;20.28;63.01;102058.31;5106769;28;20069;-68
2022/10/27 08:11:34;;;;;;;8.43;5.15;;;;;;;20.70;61.28;102067.66;5106702;27;20487;-67
2022/10/27 08:14:01;;;;;;;11.55;5.35;;;;;;;20.40;63.46;102068.06;5106298;28;20092;-67
2022/10/27 08:16:27;;;;;;;15.50;5.80;;;;;;;19.87;63.50;102066.50;5106623;28;20062;-68
2022/10/27 08:18:55;;;;;;;11.38;6.03;;;;;;;18.86;67.77;102071.59;5105411;28;20508;-68
2022/10/27 08:21:22;;;;;;;10.27;6.38;;;;;;;19.32;67.00;102064.09;5106923;27;20503;-68
2022/10/27 08:23:48;;;;;;;11.65;6.88;;;;;;;19.59;67.01;102064.03;5102680;27;20081;-68
2022/10/27 08:26:15;;;;;;;10.05;5.95;;;;;;;19.36;67.10;102069.06;5106385;28;20439;-68
2022/10/27 08:28:41;;;;;;;18.15;6.68;;;;;;;19.84;65.69;102078.19;5113253;27;20523;-68
2022/10/27 08:31:07;;;;;;;13.13;6.85;;;;;;;20.53;62.04;102076.03;5104130;28;20050;-68
2022/10/27 08:33:34;;;;;;;10.65;5.60;;;;;;;21.21;61.13;102085.16;5087477;27;20161;-68
2022/10/27 08:36:02;;;;;;;9.02;5.88;;;;;;;20.80;63.36;102071.38;5103637;28;20057;-68
2022/10/27 08:38:31;;;;;;;8.90;5.90;;;;;;;21.05;61.88;102079.25;5105015;28;20074;-68
2022/10/27 08:41:14;;;;;;;10.15;6.68;;;;;;;21.59;59.80;102078.72;5086031;28;20043;-68
2022/10/27 08:44:00;;;;;;;9.95;5.70;;;;;;;21.70;59.63;102084.94;5106690;27;20043;-68
2022/10/27 08:46:34;;;;;;;11.63;6.40;;;;;;;21.23;62.03;102077.91;5105360;27;20040;-68
2022/10/27 08:49:03;;;;;;;8.55;5.78;;;;;;;20.71;64.97;102075.53;5098207;28;20564;-68
2022/10/27 08:51:32;;;;;;;9.05;4.93;;;;;;;20.98;62.72;102075.34;5088506;28;20039;-68
2022/10/27 08:54:00;;;;;;;10.45;4.95;;;;;;;20.46;65.28;102075.63;5099900;27;20108;-68
2022/10/27 08:56:34;;;;;;;6.68;5.15;;;;;;;21.44;62.19;102074.56;5118976;27;20538;-68
2022/10/27 08:59:02;;;;;;;8.13;4.88;;;;;;;21.35;63.45;102076.13;5106618;27;20055;-68
2022/10/27 09:01:35;;;;;;;7.63;4.88;;;;;;;21.55;62.60;102072.78;5103015;27;20131;-68
2022/10/27 09:04:11;;;;;;;8.30;4.55;;;;;;;22.36;58.38;102067.28;5114435;27;20051;-68
2022/10/27 09:06:47;;;;;;;8.85;4.95;;;;;;;22.84;57.71;102070.50;5126568;27;20391;-68
2022/10/27 09:09:23;;;;;;;9.43;5.13;;;;;;;22.46;58.63;102076.28;5105727;27;20787;-68
2022/10/27 09:12:01;;;;;;;6.93;4.30;;;;;;;23.19;55.99;102073.78;5106085;27;20055;-68
2022/10/27 09:15:02;;;;;;;9.43;4.50;;;;;;;22.75;56.78;102065.91;5105658;27;20123;-68
2022/10/27 09:17:35;;;;;;;6.22;4.40;;;;;;;22.76;55.98;102067.63;5084405;28;20046;-68
2022/10/27 09:20:08;;;;;;;9.13;4.32;;;;;;;22.78;56.61;102066.50;5105470;27;20050;-68
2022/10/27 09:22:41;;;;;;;13.05;4.40;;;;;;;21.66;61.16;102074.59;5105709;27;20043;-68
2022/10/27 09:25:16;;;;;;;8.18;4.78;;;;;;;22.15;58.26;102067.19;5102885;27;20050;-68
2022/10/27 09:27:45;;;;;;;9.93;4.40;;;;;;;21.40;61.02;102063.25;5085059;28;20060;-68
2022/10/27 09:30:13;;;;;;;7.97;4.32;;;;;;;21.77;61.63;102067.47;5097937;27;20044;-68
2022/10/27 09:32:46;;;;;;;9.95;5.50;;;;;;;22.74;60.94;102059.72;5106222;27;20047;-68
2022/10/27 09:35:15;;;;;;;8.07;4.15;;;;;;;23.21;55.45;102063.78;5105989;27;20063;-68
2022/10/27 09:37:44;;;;;;;12.52;4.28;;;;;;;23.42;56.85;102066.53;5116404;27;20383;-68
2022/10/27 09:40:12;;;;;;;8.48;4.13;;;;;;;23.78;55.46;102067.88;5106699;27;20088;-68
2022/10/27 09:42:39;;;;;;;11.57;4.35;;;;;;;23.16;56.13;102076.72;5105802;28;20047;-68
2022/10/27 09:45:14;;;;;;;7.32;4.75;;;;;;;22.97;56.24;102075.69;5085585;27;20067;-68
2022/10/27 09:47:44;;;;;;;6.70;4.05;;;;;;;22.20;59.00;102073.00;5095099;27;20138;-68
2022/10/27 09:50:18;;;;;;;6.30;4.35;;;;;;;21.85;61.21;102067.72;5084876;28;20063;-68
2022/10/27 09:52:47;;;;;;;8.82;4.30;;;;;;;22.05;60.53;102071.56;5094557;27;20520;-68
2022/10/27 09:55:14;;;;;;;8.82;4.25;;;;;;;22.74;59.80;102066.88;5105700;28;20046;-68
2022/10/27 09:57:42;;;;;;;9.10;3.90;;;;;;;23.80;55.56;102070.44;5105288;28;20729;-69
2022/10/27 10:00:24;;;;;;;7.95;3.97;;;;;;;23.86;55.65;102075.25;5100770;27;20392;-68
2022/10/27 10:02:59;;;;;;;6.10;3.05;;;;;;;23.17;58.44;102067.69;5112879;27;20511;-68
2022/10/27 10:05:28;;;;;;;6.35;3.30;;;;;;;22.85;56.22;102061.50;5105773;28;20040;-68
2022/10/27 10:08:11;;;;;;;9.07;3.30;;;;;;;22.18;58.29;102068.75;5103001;28;20044;-68
2022/10/27 10:10:39;;;;;;;6.63;3.97;;;;;;;23.18;57.74;102073.91;5104107;28;20054;-67
2022/10/27 10:13:14;;;;;;;8.95;3.08;;;;;;;23.73;57.24;102062.91;5111224;27;20043;-68
2022/10/27 10:15:43;;;;;;;5.10;3.63;;;;;;;23.63;55.04;102069.19;5118600;27;20051;-68
2022/10/27 10:18:23;;;;;;;9.93;3.10;;;;;;;24.45;53.90;102067.34;5120616;27;20054;-68
2022/10/27 10:20:57;;;;;;;8.85;3.42;;;;;;;23.38;57.26;102059.69;5115842;27;20042;-67
2022/10/27 10:23:27;;;;;;;6.55;3.50;;;;;;;22.82;57.19;102045.72;5127812;27;20043;-68
2022/10/27 10:25:56;;;;;;;8.73;3.75;;;;;;;23.33;57.94;102050.34;5129202;27;20046;-67
2022/10/27 10:28:31;;;;;;;11.95;3.72;;;;;;;22.60;58.69;102051.94;5119666;27;20055;-67
2022/10/27 10:30:59;;;;;;;6.63;3.35;;;;;;;23.08;59.48;102048.88;5108602;28;20040;-67
2022/10/27 10:33:31;;;;;;;5.35;3.20;;;;;;;23.04;57.27;102052.78;5109245;28;20084;-67
2022/10/27 10:35:58;;;;;;;;;;;;;;;23.19;57.88;102056.88;5089404;28;20052;-68
2022/10/27 10:38:33;;;;;;;8.07;4.13;;;;;;;23.40;58.23;102043.50;5095302;28;19920;-68
2022/10/27 10:41:02;;;;;;;10.82;4.00;;;;;;;23.01;58.91;102051.25;5109700;27;20131;-68
2022/10/27 10:43:28;;;;;;;5.95;3.45;;;;;;;23.30;58.17;102051.47;5093497;28;20044;-68
2022/10/27 10:45:55;;;;;;;8.13;3.25;;;;;;;23.54;58.58;102052.06;5103178;28;20044;-68
2022/10/27 10:48:32;;;;;;;10.88;4.78;;;;;;;22.60;58.66;102038.56;5109047;27;20039;-68
2022/10/27 10:51:00;;;;;;;6.50;3.80;;;;;;;22.56;60.87;102046.97;5107563;27;20046;-68
2022/10/27 10:53:31;;;;;;;10.73;4.07;;;;;;;21.60;61.70;102043.06;5116110;27;20047;-67
2022/10/27 10:56:01;;;;;;;8.40;3.85;;;;;;;22.04;64.69;102040.47;5108776;28;20055;-67
2022/10/27 10:58:32;;;;;;;8.82;3.60;;;;;;;22.88;59.63;102041.66;5098258;27;20096;-68
2022/10/27 11:01:00;;;;;;;8.90;3.63;;;;;;;22.74;60.55;102037.47;5119561;27;20185;-67
2022/10/27 11:03:31;;;;;;;7.75;4.28;;;;;;;22.91;60.70;102036.91;5128780;27;20050;-68
2022/10/27 11:06:01;;;;;;;9.73;3.80;;;;;;;23.66;59.74;102034.09;5102083;27;20052;-68
2022/10/27 11:08:35;;;;;;;7.10;3.70;;;;;;;23.42;58.07;102030.88;5117032;27;20039;-68
2022/10/27 11:11:04;;;;;;;9.35;3.70;;;;;;;22.30;60.00;102028.53;5117520;27;20437;-68
2022/10/27 11:13:38;;;;;;;9.65;4.22;;;;;;;21.50;64.27;102039.41;5108140;28;20184;-67
2022/10/27 11:16:09;;;;;;;6.25;3.85;;;;;;;21.84;64.96;102022.44;5109048;28;20043;-68
2022/10/27 11:18:44;;;;;;;8.70;4.05;;;;;;;22.81;61.14;102017.25;5109674;27;20506;-67
2022/10/27 11:21:18;;;;;;;7.18;3.67;;;;;;;22.07;61.05;102021.50;5108057;27;20051;-67
2022/10/27 11:23:47;;;;;;;7.45;3.88;;;;;;;21.56;63.88;102020.25;5116078;27;20043;-67
2022/10/27 11:26:18;;;;;;;10.75;4.40;;;;;;;21.15;64.25;102018.09;5108153;27;20052;-67
2022/10/27 11:28:50;;;;;;;7.75;4.03;;;;;;;21.07;65.54;102015.09;5107208;27;20039;-67